sensor_id;sensor_type;location;lat;lon;timestamp;pressure;altitude;pressure_sealevel;temperature;humidity
79678;BME280;69145;45.544;10.214;2023-04-24T00:01:12;99107.66;;;17.80;75.14
79678;BME280;69145;45.544;10.214;2023-04-24T00:03:38;99116.31;;;17.80;76.35
79678;BME280;69145;45.544;10.214;2023-04-24T00:06:04;99122.34;;;17.81;75.60
79678;BME280;69145;45.544;10.214;2023-04-24T00:08:30;99122.56;;;17.79;75.64
79678;BME280;69145;45.544;10.214;2023-04-24T00:10:55;99124.41;;;17.79;75.79
79678;BME280;69145;45.544;10.214;2023-04-24T00:13:21;99121.00;;;17.78;76.70
79678;BME280;69145;45.544;10.214;2023-04-24T00:15:46;99115.22;;;17.76;77.21
79678;BME280;69145;45.544;10.214;2023-04-24T00:18:12;99121.81;;;17.79;76.37
79678;BME280;69145;45.544;10.214;2023-04-24T00:20:38;99113.16;;;17.78;76.85
79678;BME280;69145;45.544;10.214;2023-04-24T00:23:03;99109.75;;;17.78;77.47
79678;BME280;69145;45.544;10.214;2023-04-24T00:25:28;99111.34;;;17.79;77.70
79678;BME280;69145;45.544;10.214;2023-04-24T00:27:54;99112.34;;;17.78;77.38
79678;BME280;69145;45.544;10.214;2023-04-24T00:30:19;99104.50;;;17.78;77.01
79678;BME280;69145;45.544;10.214;2023-04-24T00:32:44;99105.56;;;17.77;77.57
79678;BME280;69145;45.544;10.214;2023-04-24T00:35:10;99105.56;;;17.77;77.42
79678;BME280;69145;45.544;10.214;2023-04-24T00:37:35;99103.75;;;17.77;77.70
79678;BME280;69145;45.544;10.214;2023-04-24T00:40:01;99104.50;;;17.78;76.81
79678;BME280;69145;45.544;10.214;2023-04-24T00:42:27;99096.66;;;17.78;77.51
79678;BME280;69145;45.544;10.214;2023-04-24T00:44:52;99099.81;;;17.80;77.79
79678;BME280;69145;45.544;10.214;2023-04-24T00:47:18;99094.59;;;17.80;77.39
79678;BME280;69145;45.544;10.214;2023-04-24T00:49:44;99080.72;;;17.79;76.82
79678;BME280;69145;45.544;10.214;2023-04-24T00:52:09;99079.69;;;17.80;76.56
79678;BME280;69145;45.544;10.214;2023-04-24T00:54:35;99073.66;;;17.80;76.43
79678;BME280;69145;45.544;10.214;2023-04-24T00:57:02;99070.25;;;17.79;77.25
79678;BME280;69145;45.544;10.214;2023-04-24T00:59:28;99077.31;;;17.79;77.54
79678;BME280;69145;45.544;10.214;2023-04-24T01:01:54;99078.88;;;17.80;75.78
79678;BME280;69145;45.544;10.214;2023-04-24T01:04:20;99083.09;;;17.81;77.40
79678;BME280;69145;45.544;10.214;2023-04-24T01:06:45;99089.34;;;17.80;76.46
79678;BME280;69145;45.544;10.214;2023-04-24T01:09:12;99101.41;;;17.81;77.20
79678;BME280;69145;45.544;10.214;2023-04-24T01:11:41;99101.41;;;17.81;77.19
79678;BME280;69145;45.544;10.214;2023-04-24T01:14:08;99111.88;;;17.81;75.75
79678;BME280;69145;45.544;10.214;2023-04-24T01:16:33;99111.88;;;17.81;73.69
79678;BME280;69145;45.544;10.214;2023-04-24T01:18:58;99112.66;;;17.81;75.38
79678;BME280;69145;45.544;10.214;2023-04-24T01:21:26;99110.28;;;17.80;73.99
79678;BME280;69145;45.544;10.214;2023-04-24T01:23:54;99108.22;;;17.82;74.16
79678;BME280;69145;45.544;10.214;2023-04-24T01:26:20;99112.66;;;17.81;76.60
79678;BME280;69145;45.544;10.214;2023-04-24T01:28:46;99109.28;;;17.81;77.35
79678;BME280;69145;45.544;10.214;2023-04-24T01:31:12;99102.97;;;17.82;77.04
79678;BME280;69145;45.544;10.214;2023-04-24T01:33:38;99104.81;;;17.81;76.44
79678;BME280;69145;45.544;10.214;2023-04-24T01:36:04;99115.53;;;17.80;73.61
79678;BME280;69145;45.544;10.214;2023-04-24T01:38:30;99107.41;;;17.81;75.36
79678;BME280;69145;45.544;10.214;2023-04-24T01:40:55;99107.66;;;17.80;77.02
79678;BME280;69145;45.544;10.214;2023-04-24T01:43:20;99109.00;;;17.82;76.94
79678;BME280;69145;45.544;10.214;2023-04-24T01:45:46;99100.63;;;17.80;74.75
79678;BME280;69145;45.544;10.214;2023-04-24T01:48:12;99094.59;;;17.80;74.56
79678;BME280;69145;45.544;10.214;2023-04-24T01:50:38;99098.00;;;17.80;75.23
79678;BME280;69145;45.544;10.214;2023-04-24T01:53:03;99096.19;;;17.81;75.05
79678;BME280;69145;45.544;10.214;2023-04-24T01:55:29;99101.41;;;17.81;73.85
79678;BME280;69145;45.544;10.214;2023-04-24T01:57:55;99105.84;;;17.80;73.33
79678;BME280;69145;45.544;10.214;2023-04-24T02:00:21;99105.06;;;17.80;71.80
79678;BME280;69145;45.544;10.214;2023-04-24T02:02:47;99108.47;;;17.80;71.31
79678;BME280;69145;45.544;10.214;2023-04-24T02:05:12;99105.06;;;17.80;74.28
79678;BME280;69145;45.544;10.214;2023-04-24T02:07:37;99107.41;;;17.81;74.81
79678;BME280;69145;45.544;10.214;2023-04-24T02:10:03;99105.31;;;17.78;71.78
79678;BME280;69145;45.544;10.214;2023-04-24T02:12:29;99113.94;;;17.79;70.06
79678;BME280;69145;45.544;10.214;2023-04-24T02:14:54;99107.66;;;17.80;73.89
79678;BME280;69145;45.544;10.214;2023-04-24T02:17:20;99098.25;;;17.79;74.10
79678;BME280;69145;45.544;10.214;2023-04-24T02:19:45;99103.25;;;17.80;72.70
79678;BME280;69145;45.544;10.214;2023-04-24T02:22:11;99107.13;;;17.78;69.40
79678;BME280;69145;45.544;10.214;2023-04-24T02:24:37;99107.91;;;17.78;72.26
79678;BME280;69145;45.544;10.214;2023-04-24T02:27:03;99100.88;;;17.79;70.33
79678;BME280;69145;45.544;10.214;2023-04-24T02:29:28;99095.63;;;17.79;71.18
79678;BME280;69145;45.544;10.214;2023-04-24T02:31:54;99091.44;;;17.78;70.86
79678;BME280;69145;45.544;10.214;2023-04-24T02:34:19;99093.28;;;17.77;70.29
79678;BME280;69145;45.544;10.214;2023-04-24T02:36:44;99092.72;;;17.75;70.10
79678;BME280;69145;45.544;10.214;2023-04-24T02:39:10;99098.94;;;17.69;69.15
79678;BME280;69145;45.544;10.214;2023-04-24T02:41:35;99103.31;;;17.64;69.42
79678;BME280;69145;45.544;10.214;2023-04-24T02:44:01;99108.34;;;17.70;72.29
79678;BME280;69145;45.544;10.214;2023-04-24T02:46:26;99116.53;;;17.74;71.75
79678;BME280;69145;45.544;10.214;2023-04-24T02:48:51;99112.84;;;17.75;71.71
79678;BME280;69145;45.544;10.214;2023-04-24T02:51:17;99111.28;;;17.74;71.61
79678;BME280;69145;45.544;10.214;2023-04-24T02:53:42;99117.03;;;17.76;71.82
79678;BME280;69145;45.544;10.214;2023-04-24T02:56:08;99116.81;;;17.77;71.83
79678;BME280;69145;45.544;10.214;2023-04-24T02:58:33;99111.81;;;17.76;70.86
79678;BME280;69145;45.544;10.214;2023-04-24T03:00:59;99123.88;;;17.77;71.75
79678;BME280;69145;45.544;10.214;2023-04-24T03:03:25;99126.63;;;17.65;69.48
79678;BME280;69145;45.544;10.214;2023-04-24T03:05:50;99134.72;;;17.64;69.94
79678;BME280;69145;45.544;10.214;2023-04-24T03:08:16;99132.94;;;17.69;70.38
79678;BME280;69145;45.544;10.214;2023-04-24T03:10:41;99122.19;;;17.66;70.43
79678;BME280;69145;45.544;10.214;2023-04-24T03:13:07;99126.44;;;17.72;72.37
79678;BME280;69145;45.544;10.214;2023-04-24T03:15:32;99126.44;;;17.72;71.95
79678;BME280;69145;45.544;10.214;2023-04-24T03:17:57;99114.69;;;17.74;72.42
79678;BME280;69145;45.544;10.214;2023-04-24T03:20:23;99108.91;;;17.72;71.99
79678;BME280;69145;45.544;10.214;2023-04-24T03:22:48;99107.63;;;17.75;72.58
79678;BME280;69145;45.544;10.214;2023-04-24T03:25:14;99096.38;;;17.74;72.22
79678;BME280;69145;45.544;10.214;2023-04-24T03:27:39;99090.03;;;17.70;71.88
79678;BME280;69145;45.544;10.214;2023-04-24T03:30:06;99088.22;;;17.71;71.71
79678;BME280;69145;45.544;10.214;2023-04-24T03:32:32;99084.59;;;17.72;71.53
79678;BME280;69145;45.544;10.214;2023-04-24T03:34:57;99097.66;;;17.72;71.51
79678;BME280;69145;45.544;10.214;2023-04-24T03:37:23;99109.66;;;17.68;70.90
79678;BME280;69145;45.544;10.214;2023-04-24T03:39:48;99110.31;;;17.58;70.60
79678;BME280;69145;45.544;10.214;2023-04-24T03:42:13;99105.28;;;17.52;70.89
79678;BME280;69145;45.544;10.214;2023-04-24T03:44:39;99095.19;;;17.60;71.89
79678;BME280;69145;45.544;10.214;2023-04-24T03:47:04;99097.06;;;17.65;72.15
79678;BME280;69145;45.544;10.214;2023-04-24T03:49:29;99089.16;;;17.60;71.75
79678;BME280;69145;45.544;10.214;2023-04-24T03:51:55;99068.28;;;17.65;72.01
79678;BME280;69145;45.544;10.214;2023-04-24T03:54:20;99062.56;;;17.68;71.77
79678;BME280;69145;45.544;10.214;2023-04-24T03:56:46;99045.06;;;17.68;71.56
79678;BME280;69145;45.544;10.214;2023-04-24T03:59:11;99027.50;;;17.69;71.82
79678;BME280;69145;45.544;10.214;2023-04-24T04:01:37;99029.88;;;17.70;72.27
79678;BME280;69145;45.544;10.214;2023-04-24T04:04:11;99034.47;;;17.58;70.99
79678;BME280;69145;45.544;10.214;2023-04-24T04:06:36;99042.56;;;17.57;71.27
79678;BME280;69145;45.544;10.214;2023-04-24T04:09:02;99054.13;;;17.61;71.67
79678;BME280;69145;45.544;10.214;2023-04-24T04:11:28;99040.03;;;17.67;72.15
79678;BME280;69145;45.544;10.214;2023-04-24T04:13:53;99041.84;;;17.61;70.85
79678;BME280;69145;45.544;10.214;2023-04-24T04:16:19;99043.13;;;17.59;71.12
79678;BME280;69145;45.544;10.214;2023-04-24T04:18:45;99053.38;;;17.65;72.12
79678;BME280;69145;45.544;10.214;2023-04-24T04:21:11;99053.13;;;17.67;71.69
79678;BME280;69145;45.544;10.214;2023-04-24T04:23:36;99056.53;;;17.67;71.42
79678;BME280;69145;45.544;10.214;2023-04-24T04:26:02;99060.91;;;17.62;70.92
79678;BME280;69145;45.544;10.214;2023-04-24T04:28:28;99051.31;;;17.67;71.82
79678;BME280;69145;45.544;10.214;2023-04-24T04:30:56;99058.91;;;17.69;72.57
79678;BME280;69145;45.544;10.214;2023-04-24T04:33:23;99060.25;;;17.71;72.21
79678;BME280;69145;45.544;10.214;2023-04-24T04:35:48;99052.59;;;17.65;71.66
79678;BME280;69145;45.544;10.214;2023-04-24T04:38:15;99053.66;;;17.69;72.49
79678;BME280;69145;45.544;10.214;2023-04-24T04:40:42;99057.88;;;17.70;72.41
79678;BME280;69145;45.544;10.214;2023-04-24T04:43:07;99059.44;;;17.71;72.20
79678;BME280;69145;45.544;10.214;2023-04-24T04:45:33;99061.03;;;17.72;72.52
79678;BME280;69145;45.544;10.214;2023-04-24T04:47:59;99063.41;;;17.73;71.86
79678;BME280;69145;45.544;10.214;2023-04-24T04:50:28;99061.81;;;17.72;72.00
79678;BME280;69145;45.544;10.214;2023-04-24T04:52:54;99065.47;;;17.71;71.56
79678;BME280;69145;45.544;10.214;2023-04-24T04:55:19;99053.19;;;17.72;71.29
79678;BME280;69145;45.544;10.214;2023-04-24T04:57:45;99057.88;;;17.70;71.66
79678;BME280;69145;45.544;10.214;2023-04-24T05:00:11;99061.25;;;17.70;71.52
79678;BME280;69145;45.544;10.214;2023-04-24T05:02:37;99056.03;;;17.70;71.72
79678;BME280;69145;45.544;10.214;2023-04-24T05:05:03;99053.13;;;17.67;71.75
79678;BME280;69145;45.544;10.214;2023-04-24T05:07:29;99055.97;;;17.65;71.84
79678;BME280;69145;45.544;10.214;2023-04-24T05:09:54;99058.84;;;17.64;71.98
79678;BME280;69145;45.544;10.214;2023-04-24T05:12:19;99061.72;;;17.62;71.82
79678;BME280;69145;45.544;10.214;2023-04-24T05:14:45;99058.56;;;17.60;71.86
79678;BME280;69145;45.544;10.214;2023-04-24T05:17:10;99059.91;;;17.63;71.95
79678;BME280;69145;45.544;10.214;2023-04-24T05:19:36;99062.00;;;17.66;71.83
79678;BME280;69145;45.544;10.214;2023-04-24T05:22:03;99060.44;;;17.65;71.69
79678;BME280;69145;45.544;10.214;2023-04-24T05:24:30;99061.22;;;17.65;71.60
79678;BME280;69145;45.544;10.214;2023-04-24T05:26:56;99061.22;;;17.65;71.81
79678;BME280;69145;45.544;10.214;2023-04-24T05:29:22;99066.19;;;17.67;71.84
79678;BME280;69145;45.544;10.214;2023-04-24T05:31:47;99068.34;;;17.70;71.95
79678;BME280;69145;45.544;10.214;2023-04-24T05:34:12;99056.03;;;17.70;71.38
79678;BME280;69145;45.544;10.214;2023-04-24T05:36:39;99064.38;;;17.67;71.32
79678;BME280;69145;45.544;10.214;2023-04-24T05:39:04;99079.78;;;17.64;71.02
79678;BME280;69145;45.544;10.214;2023-04-24T05:41:30;99080.56;;;17.64;71.15
79678;BME280;69145;45.544;10.214;2023-04-24T05:43:58;99080.31;;;17.66;71.44
79678;BME280;69145;45.544;10.214;2023-04-24T05:46:23;99077.63;;;17.56;70.84
79678;BME280;69145;45.544;10.214;2023-04-24T05:48:48;99075.34;;;17.64;72.02
79678;BME280;69145;45.544;10.214;2023-04-24T05:51:14;99089.44;;;17.63;70.82
79678;BME280;69145;45.544;10.214;2023-04-24T05:53:39;99083.75;;;17.66;71.73
79678;BME280;69145;45.544;10.214;2023-04-24T05:56:04;99091.88;;;17.70;72.78
79678;BME280;69145;45.544;10.214;2023-04-24T05:58:30;99089.03;;;17.71;72.60
79678;BME280;69145;45.544;10.214;2023-04-24T06:00:55;99093.19;;;17.72;72.31
79678;BME280;69145;45.544;10.214;2023-04-24T06:03:22;99093.19;;;17.72;71.82
79678;BME280;69145;45.544;10.214;2023-04-24T06:05:52;99092.44;;;17.72;71.76
79678;BME280;69145;45.544;10.214;2023-04-24T06:08:18;99091.38;;;17.73;71.91
79678;BME280;69145;45.544;10.214;2023-04-24T06:10:43;99086.81;;;17.63;70.89
79678;BME280;69145;45.544;10.214;2023-04-24T06:13:08;99096.31;;;17.69;72.58
79678;BME280;69145;45.544;10.214;2023-04-24T06:15:34;99092.66;;;17.70;72.02
79678;BME280;69145;45.544;10.214;2023-04-24T06:17:59;99095.28;;;17.70;71.35
79678;BME280;69145;45.544;10.214;2023-04-24T06:20:25;99106.53;;;17.71;71.34
79678;BME280;69145;45.544;10.214;2023-04-24T06:22:50;99103.13;;;17.70;71.50
79678;BME280;69145;45.544;10.214;2023-04-24T06:25:16;99100.28;;;17.72;71.40
79678;BME280;69145;45.544;10.214;2023-04-24T06:27:42;99096.06;;;17.71;71.90
79678;BME280;69145;45.544;10.214;2023-04-24T06:30:07;99094.00;;;17.73;71.88
79678;BME280;69145;45.544;10.214;2023-04-24T06:32:33;99094.53;;;17.75;72.37
79678;BME280;69145;45.544;10.214;2023-04-24T06:34:58;99095.59;;;17.74;72.06
79678;BME280;69145;45.544;10.214;2023-04-24T06:37:24;99089.31;;;17.75;72.39
79678;BME280;69145;45.544;10.214;2023-04-24T06:39:49;99088.69;;;17.63;70.75
79678;BME280;69145;45.544;10.214;2023-04-24T06:42:17;99088.34;;;17.54;70.73
79678;BME280;69145;45.544;10.214;2023-04-24T06:44:43;99083.88;;;17.55;71.08
79678;BME280;69145;45.544;10.214;2023-04-24T06:47:11;99079.78;;;17.64;72.91
79678;BME280;69145;45.544;10.214;2023-04-24T06:49:39;99086.66;;;17.70;71.59
79678;BME280;69145;45.544;10.214;2023-04-24T06:52:05;99087.19;;;17.72;72.24
79678;BME280;69145;45.544;10.214;2023-04-24T06:54:31;99090.38;;;17.74;72.37
79678;BME280;69145;45.544;10.214;2023-04-24T06:56:57;99094.00;;;17.73;72.56
79678;BME280;69145;45.544;10.214;2023-04-24T06:59:25;99107.63;;;17.75;72.95
79678;BME280;69145;45.544;10.214;2023-04-24T07:01:51;99115.22;;;17.76;71.94
79678;BME280;69145;45.544;10.214;2023-04-24T07:04:18;99110.78;;;17.77;73.64
79678;BME280;69145;45.544;10.214;2023-04-24T07:06:45;99110.53;;;17.78;73.28
79678;BME280;69145;45.544;10.214;2023-04-24T07:09:11;99117.13;;;17.81;74.62
79678;BME280;69145;45.544;10.214;2023-04-24T07:11:38;99120.75;;;17.80;74.42
79678;BME280;69145;45.544;10.214;2023-04-24T07:14:05;99126.00;;;17.80;75.15
79678;BME280;69145;45.544;10.214;2023-04-24T07:16:31;99129.66;;;17.79;74.98
79678;BME280;69145;45.544;10.214;2023-04-24T07:18:56;99133.84;;;17.80;75.90
79678;BME280;69145;45.544;10.214;2023-04-24T07:21:22;99130.19;;;17.81;74.85
79678;BME280;69145;45.544;10.214;2023-04-24T07:23:47;99137.00;;;17.82;76.36
79678;BME280;69145;45.544;10.214;2023-04-24T07:26:12;99146.66;;;17.81;76.56
79678;BME280;69145;45.544;10.214;2023-04-24T07:28:40;99138.06;;;17.81;75.23
79678;BME280;69145;45.544;10.214;2023-04-24T07:31:06;99142.22;;;17.82;76.08
79678;BME280;69145;45.544;10.214;2023-04-24T07:33:31;99144.84;;;17.82;73.02
79678;BME280;69145;45.544;10.214;2023-04-24T07:36:01;99144.06;;;17.81;74.10
79678;BME280;69145;45.544;10.214;2023-04-24T07:38:31;99145.59;;;17.77;71.81
79678;BME280;69145;45.544;10.214;2023-04-24T07:40:56;99147.13;;;17.73;70.72
79678;BME280;69145;45.544;10.214;2023-04-24T07:43:22;99139.03;;;17.75;71.10
79678;BME280;69145;45.544;10.214;2023-04-24T07:45:51;99152.66;;;17.77;71.40
79678;BME280;69145;45.544;10.214;2023-04-24T07:48:19;99136.69;;;17.78;74.07
79678;BME280;69145;45.544;10.214;2023-04-24T07:50:47;99136.44;;;17.80;73.80
79678;BME280;69145;45.544;10.214;2023-04-24T07:53:12;99142.72;;;17.79;73.34
79678;BME280;69145;45.544;10.214;2023-04-24T07:55:40;99149.53;;;17.80;74.55
79678;BME280;69145;45.544;10.214;2023-04-24T07:58:06;99142.72;;;17.79;74.89
79678;BME280;69145;45.544;10.214;2023-04-24T08:00:31;99146.66;;;17.81;74.04
79678;BME280;69145;45.544;10.214;2023-04-24T08:03:23;99145.66;;;17.82;73.98
79678;BME280;69145;45.544;10.214;2023-04-24T08:05:49;99136.94;;;17.77;73.53
79678;BME280;69145;45.544;10.214;2023-04-24T08:08:31;99145.91;;;17.81;74.61
79678;BME280;69145;45.544;10.214;2023-04-24T08:10:57;99150.59;;;17.79;75.63
79678;BME280;69145;45.544;10.214;2023-04-24T08:13:22;99143.28;;;17.81;75.73
79678;BME280;69145;45.544;10.214;2023-04-24T08:15:48;99147.72;;;17.80;74.95
79678;BME280;69145;45.544;10.214;2023-04-24T08:18:13;99143.28;;;17.81;74.48
79678;BME280;69145;45.544;10.214;2023-04-24T08:20:41;99152.69;;;17.82;75.31
79678;BME280;69145;45.544;10.214;2023-04-24T08:23:07;99147.47;;;17.82;75.23
79678;BME280;69145;45.544;10.214;2023-04-24T08:25:32;99146.41;;;17.83;74.32
79678;BME280;69145;45.544;10.214;2023-04-24T08:28:00;99148.25;;;17.82;74.47
79678;BME280;69145;45.544;10.214;2023-04-24T08:30:25;99146.41;;;17.83;75.82
79678;BME280;69145;45.544;10.214;2023-04-24T08:32:51;99144.84;;;17.82;74.93
79678;BME280;69145;45.544;10.214;2023-04-24T08:35:16;99145.66;;;17.82;75.06
79678;BME280;69145;45.544;10.214;2023-04-24T08:38:05;99141.97;;;17.83;75.52
79678;BME280;69145;45.544;10.214;2023-04-24T08:40:34;99151.66;;;17.83;75.10
79678;BME280;69145;45.544;10.214;2023-04-24T08:43:00;99150.88;;;17.82;74.84
79678;BME280;69145;45.544;10.214;2023-04-24T08:45:26;99151.91;;;17.81;74.83
79678;BME280;69145;45.544;10.214;2023-04-24T08:47:53;99145.41;;;17.84;75.12
79678;BME280;69145;45.544;10.214;2023-04-24T08:50:20;99142.78;;;17.84;76.03
79678;BME280;69145;45.544;10.214;2023-04-24T08:52:45;99141.97;;;17.83;75.13
79678;BME280;69145;45.544;10.214;2023-04-24T08:55:12;99143.59;;;17.84;74.49
79678;BME280;69145;45.544;10.214;2023-04-24T08:57:39;99144.84;;;17.82;74.99
79678;BME280;69145;45.544;10.214;2023-04-24T09:00:05;99142.78;;;17.84;74.97
79678;BME280;69145;45.544;10.214;2023-04-24T09:02:31;99144.59;;;17.83;75.30
79678;BME280;69145;45.544;10.214;2023-04-24T09:05:00;99151.44;;;17.84;74.94
79678;BME280;69145;45.544;10.214;2023-04-24T09:07:27;99148.00;;;17.84;75.53
79678;BME280;69145;45.544;10.214;2023-04-24T09:09:52;99141.19;;;17.83;74.91
79678;BME280;69145;45.544;10.214;2023-04-24T09:12:18;99139.13;;;17.85;74.96
79678;BME280;69145;45.544;10.214;2023-04-24T09:14:44;99148.81;;;17.84;74.98
79678;BME280;69145;45.544;10.214;2023-04-24T09:17:13;99146.41;;;17.83;75.65
79678;BME280;69145;45.544;10.214;2023-04-24T09:19:55;99148.00;;;17.84;74.87
79678;BME280;69145;45.544;10.214;2023-04-24T09:22:21;99147.22;;;17.83;75.34
79678;BME280;69145;45.544;10.214;2023-04-24T09:24:47;99150.63;;;17.84;75.17
79678;BME280;69145;45.544;10.214;2023-04-24T09:27:13;99147.22;;;17.83;75.29
79678;BME280;69145;45.544;10.214;2023-04-24T09:29:54;99150.38;;;17.85;74.73
79678;BME280;69145;45.544;10.214;2023-04-24T09:32:21;99148.81;;;17.84;75.67
79678;BME280;69145;45.544;10.214;2023-04-24T09:34:47;99143.59;;;17.84;75.26
79678;BME280;69145;45.544;10.214;2023-04-24T09:37:28;99141.97;;;17.83;74.61
79678;BME280;69145;45.544;10.214;2023-04-24T09:40:16;99138.34;;;17.84;74.86
79678;BME280;69145;45.544;10.214;2023-04-24T09:42:50;99139.38;;;17.83;74.88
79678;BME280;69145;45.544;10.214;2023-04-24T09:45:16;99132.31;;;17.84;74.86
79678;BME280;69145;45.544;10.214;2023-04-24T09:47:42;99134.13;;;17.83;74.85
79678;BME280;69145;45.544;10.214;2023-04-24T09:50:15;99122.88;;;17.83;74.69
79678;BME280;69145;45.544;10.214;2023-04-24T09:52:43;99133.88;;;17.85;75.18
79678;BME280;69145;45.544;10.214;2023-04-24T09:55:15;99135.72;;;17.84;74.56
79678;BME280;69145;45.544;10.214;2023-04-24T09:57:55;99138.34;;;17.84;74.30
79678;BME280;69145;45.544;10.214;2023-04-24T10:00:22;99138.34;;;17.84;75.20
79678;BME280;69145;45.544;10.214;2023-04-24T10:03:01;99140.72;;;17.86;75.56
79678;BME280;69145;45.544;10.214;2023-04-24T10:05:28;99139.13;;;17.85;75.37
79678;BME280;69145;45.544;10.214;2023-04-24T10:08:01;99131.25;;;17.85;75.11
79678;BME280;69145;45.544;10.214;2023-04-24T10:10:28;99136.50;;;17.85;75.49
79678;BME280;69145;45.544;10.214;2023-04-24T10:12:54;99141.72;;;17.85;75.37
79678;BME280;69145;45.544;10.214;2023-04-24T10:15:20;99146.72;;;17.86;74.86
79678;BME280;69145;45.544;10.214;2023-04-24T10:17:50;99135.47;;;17.86;75.64
79678;BME280;69145;45.544;10.214;2023-04-24T10:20:23;99135.47;;;17.86;74.74
79678;BME280;69145;45.544;10.214;2023-04-24T10:22:52;99138.09;;;17.86;74.79
79678;BME280;69145;45.544;10.214;2023-04-24T10:25:26;99145.16;;;17.85;75.01
79678;BME280;69145;45.544;10.214;2023-04-24T10:27:52;99141.47;;;17.86;76.36
79678;BME280;69145;45.544;10.214;2023-04-24T10:30:19;99141.72;;;17.85;75.18
79678;BME280;69145;45.544;10.214;2023-04-24T10:32:45;99142.53;;;17.85;75.09
79678;BME280;69145;45.544;10.214;2023-04-24T10:35:15;99147.75;;;17.85;74.30
79678;BME280;69145;45.544;10.214;2023-04-24T10:37:48;99149.84;;;17.83;74.13
79678;BME280;69145;45.544;10.214;2023-04-24T10:40:18;99145.41;;;17.84;74.28
79678;BME280;69145;45.544;10.214;2023-04-24T10:42:46;99141.19;;;17.83;74.80
79678;BME280;69145;45.544;10.214;2023-04-24T10:45:22;99146.41;;;17.83;74.33
79678;BME280;69145;45.544;10.214;2023-04-24T10:48:06;99152.44;;;17.83;74.73
79678;BME280;69145;45.544;10.214;2023-04-24T10:50:51;99149.59;;;17.85;75.35
79678;BME280;69145;45.544;10.214;2023-04-24T10:53:19;99157.69;;;17.83;76.55
79678;BME280;69145;45.544;10.214;2023-04-24T10:55:50;99150.63;;;17.84;75.47
79678;BME280;69145;45.544;10.214;2023-04-24T10:58:21;99148.00;;;17.84;74.50
79678;BME280;69145;45.544;10.214;2023-04-24T11:00:56;99156.66;;;17.84;74.22
79678;BME280;69145;45.544;10.214;2023-04-24T11:03:27;99146.97;;;17.85;75.75
79678;BME280;69145;45.544;10.214;2023-04-24T11:06:02;99150.38;;;17.85;75.38
79678;BME280;69145;45.544;10.214;2023-04-24T11:08:38;99149.59;;;17.85;74.74
79678;BME280;69145;45.544;10.214;2023-04-24T11:11:13;99154.81;;;17.85;74.30
79678;BME280;69145;45.544;10.214;2023-04-24T11:16:28;99159.03;;;17.86;76.64
79678;BME280;69145;45.544;10.214;2023-04-24T11:22:00;99161.66;;;17.86;75.74
79678;BME280;69145;45.544;10.214;2023-04-24T11:35:21;99143.34;;;17.86;75.94
79678;BME280;69145;45.544;10.214;2023-04-24T11:37:53;99142.53;;;17.85;75.50
79678;BME280;69145;45.544;10.214;2023-04-24T11:40:20;99131.81;;;17.87;74.87
79678;BME280;69145;45.544;10.214;2023-04-24T11:42:51;99138.88;;;17.86;74.72
79678;BME280;69145;45.544;10.214;2023-04-24T11:45:22;99133.63;;;17.86;75.71
79678;BME280;69145;45.544;10.214;2023-04-24T11:47:47;99131.81;;;17.87;75.88
79678;BME280;69145;45.544;10.214;2023-04-24T11:50:18;99133.41;;;17.88;75.50
79678;BME280;69145;45.544;10.214;2023-04-24T11:52:46;99129.19;;;17.87;74.92
79678;BME280;69145;45.544;10.214;2023-04-24T11:57:42;99125.78;;;17.86;76.33
79678;BME280;69145;45.544;10.214;2023-04-24T12:00:15;99117.72;;;17.88;76.45
79678;BME280;69145;45.544;10.214;2023-04-24T12:02:41;99121.34;;;17.87;75.91
79678;BME280;69145;45.544;10.214;2023-04-24T12:05:06;99117.72;;;17.88;76.68
79678;BME280;69145;45.544;10.214;2023-04-24T12:07:40;99113.25;;;17.88;75.91
79678;BME280;69145;45.544;10.214;2023-04-24T12:10:08;99107.25;;;17.88;76.20
79678;BME280;69145;45.544;10.214;2023-04-24T12:12:34;99113.25;;;17.88;76.48
79678;BME280;69145;45.544;10.214;2023-04-24T12:15:01;99105.38;;;17.88;76.05
79678;BME280;69145;45.544;10.214;2023-04-24T12:17:32;99106.19;;;17.89;76.43
79678;BME280;69145;45.544;10.214;2023-04-24T12:20:04;99109.84;;;17.88;75.36
79678;BME280;69145;45.544;10.214;2023-04-24T12:22:46;99106.19;;;17.89;76.01
79678;BME280;69145;45.544;10.214;2023-04-24T12:25:13;99096.78;;;17.88;76.38
79678;BME280;69145;45.544;10.214;2023-04-24T12:27:39;99095.72;;;17.89;75.62
79678;BME280;69145;45.544;10.214;2023-04-24T12:30:05;99087.88;;;17.89;75.72
79678;BME280;69145;45.544;10.214;2023-04-24T12:32:31;99079.22;;;17.88;75.68
79678;BME280;69145;45.544;10.214;2023-04-24T12:34:57;99086.06;;;17.89;76.16
79678;BME280;69145;45.544;10.214;2023-04-24T12:37:24;99085.00;;;17.90;76.04
79678;BME280;69145;45.544;10.214;2023-04-24T12:40:04;99084.19;;;17.90;76.44
79678;BME280;69145;45.544;10.214;2023-04-24T12:42:31;99061.69;;;17.89;77.20
79678;BME280;69145;45.544;10.214;2023-04-24T12:45:02;99057.28;;;17.89;77.04
79678;BME280;69145;45.544;10.214;2023-04-24T12:47:28;99059.09;;;17.89;75.43
79678;BME280;69145;45.544;10.214;2023-04-24T12:49:54;99063.28;;;17.90;76.22
79678;BME280;69145;45.544;10.214;2023-04-24T12:52:24;99063.28;;;17.90;76.03
79678;BME280;69145;45.544;10.214;2023-04-24T12:54:50;99061.69;;;17.89;76.73
79678;BME280;69145;45.544;10.214;2023-04-24T12:57:17;99066.94;;;17.89;76.58
79678;BME280;69145;45.544;10.214;2023-04-24T12:59:42;99055.66;;;17.88;75.88
79678;BME280;69145;45.544;10.214;2023-04-24T13:02:09;99050.19;;;17.90;75.91
79678;BME280;69145;45.544;10.214;2023-04-24T13:04:35;99046.00;;;17.89;76.81
79678;BME280;69145;45.544;10.214;2023-04-24T13:07:00;99040.25;;;17.92;77.57
79678;BME280;69145;45.544;10.214;2023-04-24T13:09:25;99037.09;;;17.90;77.44